sensor_id;sensor_type;location;lat;lon;timestamp;P1;durP1;ratioP1;P2;durP2;ratioP2
53052;SDS011;38934;52.690;6.184;2022-08-27T00:02:01;6.90;;;4.80;;
53052;SDS011;38934;52.690;6.184;2022-08-27T00:04:26;7.45;;;4.72;;
53052;SDS011;38934;52.690;6.184;2022-08-27T00:06:52;6.63;;;5.07;;
53052;SDS011;38934;52.690;6.184;2022-08-27T00:09:17;7.72;;;4.75;;
53052;SDS011;38934;52.690;6.184;2022-08-27T00:11:43;9.15;;;4.85;;
53052;SDS011;38934;52.690;6.184;2022-08-27T00:14:10;7.50;;;4.78;;
53052;SDS011;38934;52.690;6.184;2022-08-27T00:16:36;6.60;;;5.15;;
53052;SDS011;38934;52.690;6.184;2022-08-27T00:19:02;6.25;;;4.53;;
53052;SDS011;38934;52.690;6.184;2022-08-27T00:21:28;7.88;;;5.03;;
53052;SDS011;38934;52.690;6.184;2022-08-27T00:23:54;6.78;;;4.55;;
53052;SDS011;38934;52.690;6.184;2022-08-27T00:26:19;5.50;;;4.70;;
53052;SDS011;38934;52.690;6.184;2022-08-27T00:28:45;9.05;;;5.07;;
53052;SDS011;38934;52.690;6.184;2022-08-27T00:31:11;6.57;;;5.10;;
53052;SDS011;38934;52.690;6.184;2022-08-27T00:33:38;7.95;;;5.55;;
53052;SDS011;38934;52.690;6.184;2022-08-27T00:36:04;9.50;;;5.32;;
53052;SDS011;38934;52.690;6.184;2022-08-27T00:38:30;7.30;;;5.10;;
53052;SDS011;38934;52.690;6.184;2022-08-27T00:40:56;8.07;;;5.13;;
53052;SDS011;38934;52.690;6.184;2022-08-27T00:43:26;8.32;;;5.03;;
53052;SDS011;38934;52.690;6.184;2022-08-27T00:46:00;7.40;;;4.90;;
53052;SDS011;38934;52.690;6.184;2022-08-27T00:48:32;6.53;;;5.15;;
53052;SDS011;38934;52.690;6.184;2022-08-27T00:51:00;7.78;;;5.00;;
53052;SDS011;38934;52.690;6.184;2022-08-27T00:53:27;10.88;;;5.40;;
53052;SDS011;38934;52.690;6.184;2022-08-27T00:56:12;6.70;;;5.32;;
53052;SDS011;38934;52.690;6.184;2022-08-27T00:58:43;8.68;;;6.03;;
53052;SDS011;38934;52.690;6.184;2022-08-27T01:01:13;6.63;;;5.32;;
53052;SDS011;38934;52.690;6.184;2022-08-27T01:03:40;7.00;;;5.57;;
53052;SDS011;38934;52.690;6.184;2022-08-27T01:06:11;8.25;;;5.72;;
53052;SDS011;38934;52.690;6.184;2022-08-27T01:08:40;8.85;;;5.97;;
53052;SDS011;38934;52.690;6.184;2022-08-27T01:11:09;8.73;;;6.00;;
53052;SDS011;38934;52.690;6.184;2022-08-27T01:13:36;10.30;;;6.20;;
53052;SDS011;38934;52.690;6.184;2022-08-27T01:16:02;11.95;;;6.40;;
53052;SDS011;38934;52.690;6.184;2022-08-27T01:18:31;8.73;;;6.20;;
53052;SDS011;38934;52.690;6.184;2022-08-27T01:26:55;8.65;;;5.53;;
53052;SDS011;38934;52.690;6.184;2022-08-27T01:29:22;10.30;;;5.55;;
53052;SDS011;38934;52.690;6.184;2022-08-27T01:31:48;8.60;;;6.05;;
53052;SDS011;38934;52.690;6.184;2022-08-27T01:34:14;7.63;;;5.68;;
53052;SDS011;38934;52.690;6.184;2022-08-27T01:36:40;7.00;;;5.60;;
53052;SDS011;38934;52.690;6.184;2022-08-27T01:39:05;8.45;;;5.47;;
53052;SDS011;38934;52.690;6.184;2022-08-27T01:41:32;7.75;;;5.22;;
53052;SDS011;38934;52.690;6.184;2022-08-27T01:43:58;8.35;;;5.55;;
53052;SDS011;38934;52.690;6.184;2022-08-27T01:46:24;7.07;;;5.45;;
53052;SDS011;38934;52.690;6.184;2022-08-27T01:48:52;7.68;;;4.93;;
53052;SDS011;38934;52.690;6.184;2022-08-27T01:51:18;9.25;;;5.65;;
53052;SDS011;38934;52.690;6.184;2022-08-27T01:53:44;6.60;;;5.00;;
53052;SDS011;38934;52.690;6.184;2022-08-27T01:56:10;10.20;;;5.25;;
53052;SDS011;38934;52.690;6.184;2022-08-27T01:58:36;6.28;;;4.95;;
53052;SDS011;38934;52.690;6.184;2022-08-27T02:01:04;7.60;;;5.65;;
53052;SDS011;38934;52.690;6.184;2022-08-27T02:03:34;7.57;;;5.18;;
53052;SDS011;38934;52.690;6.184;2022-08-27T02:06:04;7.53;;;5.30;;
53052;SDS011;38934;52.690;6.184;2022-08-27T02:08:31;8.50;;;5.43;;
53052;SDS011;38934;52.690;6.184;2022-08-27T02:10:57;8.63;;;5.43;;
53052;SDS011;38934;52.690;6.184;2022-08-27T02:13:23;7.07;;;5.43;;
53052;SDS011;38934;52.690;6.184;2022-08-27T02:15:49;8.10;;;5.93;;
53052;SDS011;38934;52.690;6.184;2022-08-27T02:18:14;8.43;;;5.30;;
53052;SDS011;38934;52.690;6.184;2022-08-27T02:20:41;6.38;;;5.18;;
53052;SDS011;38934;52.690;6.184;2022-08-27T02:23:09;8.85;;;5.95;;
53052;SDS011;38934;52.690;6.184;2022-08-27T02:25:34;8.10;;;5.80;;
53052;SDS011;38934;52.690;6.184;2022-08-27T02:28:00;7.05;;;5.30;;
53052;SDS011;38934;52.690;6.184;2022-08-27T02:30:27;7.97;;;5.55;;
53052;SDS011;38934;52.690;6.184;2022-08-27T02:32:55;7.93;;;5.95;;
53052;SDS011;38934;52.690;6.184;2022-08-27T02:35:22;9.15;;;5.80;;
53052;SDS011;38934;52.690;6.184;2022-08-27T02:37:48;8.50;;;5.28;;
53052;SDS011;38934;52.690;6.184;2022-08-27T02:40:16;8.07;;;5.25;;
53052;SDS011;38934;52.690;6.184;2022-08-27T02:42:43;11.48;;;5.97;;
53052;SDS011;38934;52.690;6.184;2022-08-27T02:45:09;7.93;;;5.13;;
53052;SDS011;38934;52.690;6.184;2022-08-27T02:47:35;10.07;;;5.93;;
53052;SDS011;38934;52.690;6.184;2022-08-27T02:50:01;9.13;;;5.40;;
53052;SDS011;38934;52.690;6.184;2022-08-27T02:52:28;7.53;;;5.35;;
53052;SDS011;38934;52.690;6.184;2022-08-27T02:54:55;8.35;;;5.60;;
53052;SDS011;38934;52.690;6.184;2022-08-27T02:57:21;7.68;;;5.35;;
53052;SDS011;38934;52.690;6.184;2022-08-27T02:59:47;8.20;;;5.80;;
53052;SDS011;38934;52.690;6.184;2022-08-27T03:02:13;9.50;;;5.63;;
53052;SDS011;38934;52.690;6.184;2022-08-27T03:04:39;7.75;;;5.40;;
53052;SDS011;38934;52.690;6.184;2022-08-27T03:07:05;8.68;;;5.65;;
53052;SDS011;38934;52.690;6.184;2022-08-27T03:09:32;8.50;;;5.43;;
53052;SDS011;38934;52.690;6.184;2022-08-27T03:11:58;10.77;;;5.68;;
53052;SDS011;38934;52.690;6.184;2022-08-27T03:14:26;9.73;;;5.78;;
53052;SDS011;38934;52.690;6.184;2022-08-27T03:16:52;8.02;;;5.97;;
53052;SDS011;38934;52.690;6.184;2022-08-27T03:19:18;7.32;;;5.32;;
53052;SDS011;38934;52.690;6.184;2022-08-27T03:21:44;7.13;;;5.53;;
53052;SDS011;38934;52.690;6.184;2022-08-27T03:24:10;11.55;;;6.28;;
53052;SDS011;38934;52.690;6.184;2022-08-27T03:26:36;7.25;;;6.18;;
53052;SDS011;38934;52.690;6.184;2022-08-27T03:29:03;9.30;;;5.82;;
53052;SDS011;38934;52.690;6.184;2022-08-27T03:31:28;7.60;;;5.15;;
53052;SDS011;38934;52.690;6.184;2022-08-27T03:33:59;8.00;;;5.35;;
53052;SDS011;38934;52.690;6.184;2022-08-27T03:36:28;6.93;;;5.50;;
53052;SDS011;38934;52.690;6.184;2022-08-27T03:38:55;7.90;;;5.57;;
53052;SDS011;38934;52.690;6.184;2022-08-27T03:41:21;7.20;;;5.63;;
53052;SDS011;38934;52.690;6.184;2022-08-27T03:43:48;7.45;;;5.63;;
53052;SDS011;38934;52.690;6.184;2022-08-27T03:46:14;8.07;;;5.35;;
53052;SDS011;38934;52.690;6.184;2022-08-27T03:48:41;6.18;;;4.90;;
53052;SDS011;38934;52.690;6.184;2022-08-27T03:51:07;8.15;;;5.82;;
53052;SDS011;38934;52.690;6.184;2022-08-27T03:53:35;7.93;;;5.32;;
53052;SDS011;38934;52.690;6.184;2022-08-27T03:56:02;8.90;;;5.47;;
53052;SDS011;38934;52.690;6.184;2022-08-27T03:58:30;8.85;;;5.78;;
53052;SDS011;38934;52.690;6.184;2022-08-27T04:00:56;7.93;;;5.30;;
53052;SDS011;38934;52.690;6.184;2022-08-27T04:03:21;8.52;;;5.38;;
53052;SDS011;38934;52.690;6.184;2022-08-27T04:05:51;6.57;;;5.10;;
53052;SDS011;38934;52.690;6.184;2022-08-27T04:08:18;7.57;;;5.10;;
53052;SDS011;38934;52.690;6.184;2022-08-27T04:10:43;12.20;;;5.32;;
53052;SDS011;38934;52.690;6.184;2022-08-27T04:13:09;7.85;;;5.90;;
53052;SDS011;38934;52.690;6.184;2022-08-27T04:15:35;7.60;;;5.40;;
53052;SDS011;38934;52.690;6.184;2022-08-27T04:18:00;6.55;;;5.40;;
53052;SDS011;38934;52.690;6.184;2022-08-27T04:20:26;8.55;;;5.85;;
53052;SDS011;38934;52.690;6.184;2022-08-27T04:22:52;8.10;;;5.65;;
53052;SDS011;38934;52.690;6.184;2022-08-27T04:25:18;6.70;;;5.72;;
53052;SDS011;38934;52.690;6.184;2022-08-27T04:27:44;6.78;;;5.50;;
53052;SDS011;38934;52.690;6.184;2022-08-27T04:30:10;9.57;;;6.38;;
53052;SDS011;38934;52.690;6.184;2022-08-27T04:32:39;7.57;;;5.28;;
53052;SDS011;38934;52.690;6.184;2022-08-27T04:35:05;8.93;;;6.25;;
53052;SDS011;38934;52.690;6.184;2022-08-27T04:37:31;8.38;;;6.63;;
53052;SDS011;38934;52.690;6.184;2022-08-27T04:39:57;9.45;;;5.43;;
53052;SDS011;38934;52.690;6.184;2022-08-27T04:42:23;7.82;;;5.53;;
53052;SDS011;38934;52.690;6.184;2022-08-27T04:44:49;7.35;;;5.95;;
53052;SDS011;38934;52.690;6.184;2022-08-27T04:47:17;6.78;;;5.07;;
53052;SDS011;38934;52.690;6.184;2022-08-27T04:49:43;7.63;;;5.72;;
53052;SDS011;38934;52.690;6.184;2022-08-27T04:52:09;8.77;;;5.85;;
53052;SDS011;38934;52.690;6.184;2022-08-27T04:54:35;6.70;;;5.13;;
53052;SDS011;38934;52.690;6.184;2022-08-27T04:57:01;9.00;;;5.70;;
53052;SDS011;38934;52.690;6.184;2022-08-27T04:59:28;7.22;;;5.28;;
53052;SDS011;38934;52.690;6.184;2022-08-27T05:01:55;7.15;;;5.40;;
53052;SDS011;38934;52.690;6.184;2022-08-27T05:04:20;6.65;;;5.25;;
53052;SDS011;38934;52.690;6.184;2022-08-27T05:06:46;8.88;;;5.57;;
53052;SDS011;38934;52.690;6.184;2022-08-27T05:09:14;9.20;;;5.70;;
53052;SDS011;38934;52.690;6.184;2022-08-27T05:11:40;7.68;;;5.80;;
53052;SDS011;38934;52.690;6.184;2022-08-27T05:14:10;8.93;;;5.47;;
53052;SDS011;38934;52.690;6.184;2022-08-27T05:16:37;6.72;;;5.28;;
53052;SDS011;38934;52.690;6.184;2022-08-27T05:19:04;6.45;;;5.18;;
53052;SDS011;38934;52.690;6.184;2022-08-27T05:21:33;6.72;;;4.95;;
53052;SDS011;38934;52.690;6.184;2022-08-27T05:24:02;8.48;;;6.07;;
53052;SDS011;38934;52.690;6.184;2022-08-27T05:26:29;7.18;;;5.20;;
53052;SDS011;38934;52.690;6.184;2022-08-27T05:28:59;7.18;;;5.63;;
53052;SDS011;38934;52.690;6.184;2022-08-27T05:31:25;7.88;;;5.32;;
53052;SDS011;38934;52.690;6.184;2022-08-27T05:33:53;6.10;;;4.88;;
53052;SDS011;38934;52.690;6.184;2022-08-27T05:36:27;8.15;;;4.93;;
53052;SDS011;38934;52.690;6.184;2022-08-27T05:38:54;8.00;;;5.13;;
53052;SDS011;38934;52.690;6.184;2022-08-27T05:41:23;6.82;;;4.78;;
53052;SDS011;38934;52.690;6.184;2022-08-27T05:43:52;6.93;;;4.93;;
53052;SDS011;38934;52.690;6.184;2022-08-27T05:46:20;6.38;;;4.63;;
53052;SDS011;38934;52.690;6.184;2022-08-27T05:48:48;6.55;;;4.72;;
53052;SDS011;38934;52.690;6.184;2022-08-27T05:53:42;7.63;;;4.40;;
53052;SDS011;38934;52.690;6.184;2022-08-27T05:56:14;6.57;;;4.50;;
53052;SDS011;38934;52.690;6.184;2022-08-27T05:58:42;7.95;;;4.72;;
53052;SDS011;38934;52.690;6.184;2022-08-27T06:01:26;6.47;;;4.85;;
53052;SDS011;38934;52.690;6.184;2022-08-27T06:03:53;7.88;;;4.97;;
53052;SDS011;38934;52.690;6.184;2022-08-27T06:06:19;6.13;;;4.63;;
53052;SDS011;38934;52.690;6.184;2022-08-27T06:09:05;5.20;;;4.25;;
53052;SDS011;38934;52.690;6.184;2022-08-27T06:11:56;5.50;;;4.22;;
53052;SDS011;38934;52.690;6.184;2022-08-27T06:14:24;6.63;;;4.10;;
53052;SDS011;38934;52.690;6.184;2022-08-27T06:16:50;6.05;;;4.40;;
53052;SDS011;38934;52.690;6.184;2022-08-27T06:19:26;9.25;;;4.35;;
53052;SDS011;38934;52.690;6.184;2022-08-27T06:21:52;8.13;;;4.05;;
53052;SDS011;38934;52.690;6.184;2022-08-27T06:24:18;6.07;;;4.68;;
53052;SDS011;38934;52.690;6.184;2022-08-27T06:26:46;9.18;;;5.03;;
53052;SDS011;38934;52.690;6.184;2022-08-27T06:29:12;8.00;;;4.75;;
53052;SDS011;38934;52.690;6.184;2022-08-27T06:31:46;8.57;;;4.70;;
53052;SDS011;38934;52.690;6.184;2022-08-27T06:34:16;5.75;;;4.53;;
53052;SDS011;38934;52.690;6.184;2022-08-27T06:36:42;6.15;;;4.18;;
53052;SDS011;38934;52.690;6.184;2022-08-27T06:42:13;7.88;;;4.35;;
53052;SDS011;38934;52.690;6.184;2022-08-27T06:44:39;7.50;;;4.30;;
53052;SDS011;38934;52.690;6.184;2022-08-27T06:47:05;6.32;;;3.90;;
53052;SDS011;38934;52.690;6.184;2022-08-27T06:49:42;6.70;;;3.92;;
53052;SDS011;38934;52.690;6.184;2022-08-27T06:52:45;6.68;;;3.95;;
53052;SDS011;38934;52.690;6.184;2022-08-27T06:55:46;8.57;;;3.58;;
53052;SDS011;38934;52.690;6.184;2022-08-27T06:58:12;7.72;;;3.15;;
53052;SDS011;38934;52.690;6.184;2022-08-27T07:00:50;6.68;;;2.95;;
53052;SDS011;38934;52.690;6.184;2022-08-27T07:03:15;6.72;;;2.80;;
53052;SDS011;38934;52.690;6.184;2022-08-27T07:05:49;3.30;;;2.47;;
53052;SDS011;38934;52.690;6.184;2022-08-27T07:08:27;4.18;;;2.63;;
53052;SDS011;38934;52.690;6.184;2022-08-27T07:10:58;6.72;;;2.40;;
53052;SDS011;38934;52.690;6.184;2022-08-27T07:13:24;4.97;;;2.42;;
53052;SDS011;38934;52.690;6.184;2022-08-27T07:16:02;4.70;;;2.83;;
53052;SDS011;38934;52.690;6.184;2022-08-27T07:18:45;4.40;;;2.38;;
53052;SDS011;38934;52.690;6.184;2022-08-27T07:21:13;3.90;;;2.25;;
53052;SDS011;38934;52.690;6.184;2022-08-27T07:23:47;3.17;;;2.10;;
53052;SDS011;38934;52.690;6.184;2022-08-27T07:26:15;3.65;;;1.75;;
53052;SDS011;38934;52.690;6.184;2022-08-27T07:28:44;3.20;;;1.88;;
53052;SDS011;38934;52.690;6.184;2022-08-27T07:31:12;5.88;;;2.08;;
53052;SDS011;38934;52.690;6.184;2022-08-27T07:33:41;3.28;;;1.83;;
53052;SDS011;38934;52.690;6.184;2022-08-27T07:36:13;3.15;;;1.95;;
53052;SDS011;38934;52.690;6.184;2022-08-27T07:41:30;5.90;;;1.88;;
53052;SDS011;38934;52.690;6.184;2022-08-27T07:43:56;5.20;;;2.13;;
53052;SDS011;38934;52.690;6.184;2022-08-27T07:46:44;3.70;;;1.95;;
53052;SDS011;38934;52.690;6.184;2022-08-27T07:49:09;3.45;;;1.77;;
53052;SDS011;38934;52.690;6.184;2022-08-27T07:51:35;5.75;;;1.70;;
53052;SDS011;38934;52.690;6.184;2022-08-27T07:54:01;4.93;;;2.03;;
53052;SDS011;38934;52.690;6.184;2022-08-27T07:56:27;5.13;;;1.83;;
53052;SDS011;38934;52.690;6.184;2022-08-27T07:58:53;6.95;;;2.15;;
53052;SDS011;38934;52.690;6.184;2022-08-27T08:01:19;3.22;;;2.00;;
53052;SDS011;38934;52.690;6.184;2022-08-27T08:03:45;4.97;;;1.85;;
53052;SDS011;38934;52.690;6.184;2022-08-27T08:06:12;4.95;;;1.88;;
53052;SDS011;38934;52.690;6.184;2022-08-27T08:08:39;6.70;;;2.00;;
53052;SDS011;38934;52.690;6.184;2022-08-27T08:11:06;3.85;;;2.00;;
53052;SDS011;38934;52.690;6.184;2022-08-27T08:13:33;4.07;;;1.80;;
53052;SDS011;38934;52.690;6.184;2022-08-27T08:15:59;4.22;;;1.63;;
53052;SDS011;38934;52.690;6.184;2022-08-27T08:18:25;5.20;;;1.60;;
53052;SDS011;38934;52.690;6.184;2022-08-27T08:20:51;2.95;;;1.30;;
53052;SDS011;38934;52.690;6.184;2022-08-27T08:23:16;3.67;;;1.50;;
53052;SDS011;38934;52.690;6.184;2022-08-27T08:25:42;3.22;;;1.50;;
53052;SDS011;38934;52.690;6.184;2022-08-27T08:28:08;4.90;;;1.60;;
53052;SDS011;38934;52.690;6.184;2022-08-27T08:30:35;5.57;;;1.30;;
53052;SDS011;38934;52.690;6.184;2022-08-27T08:33:02;2.25;;;1.40;;
53052;SDS011;38934;52.690;6.184;2022-08-27T08:35:28;4.32;;;1.67;;
53052;SDS011;38934;52.690;6.184;2022-08-27T08:37:53;5.18;;;1.55;;
53052;SDS011;38934;52.690;6.184;2022-08-27T08:43:02;3.05;;;1.42;;
53052;SDS011;38934;52.690;6.184;2022-08-27T08:45:51;5.00;;;1.35;;
53052;SDS011;38934;52.690;6.184;2022-08-27T08:48:20;4.05;;;1.60;;
53052;SDS011;38934;52.690;6.184;2022-08-27T08:51:09;2.88;;;1.70;;
53052;SDS011;38934;52.690;6.184;2022-08-27T09:01:47;4.47;;;1.73;;
53052;SDS011;38934;52.690;6.184;2022-08-27T09:04:13;4.95;;;1.90;;
53052;SDS011;38934;52.690;6.184;2022-08-27T09:06:44;5.20;;;2.17;;
53052;SDS011;38934;52.690;6.184;2022-08-27T09:09:22;4.85;;;1.60;;
53052;SDS011;38934;52.690;6.184;2022-08-27T09:11:54;2.72;;;1.42;;
53052;SDS011;38934;52.690;6.184;2022-08-27T09:17:01;5.70;;;1.50;;
53052;SDS011;38934;52.690;6.184;2022-08-27T09:19:27;6.20;;;1.70;;
53052;SDS011;38934;52.690;6.184;2022-08-27T09:22:02;4.30;;;1.60;;
53052;SDS011;38934;52.690;6.184;2022-08-27T09:24:51;5.38;;;1.55;;
53052;SDS011;38934;52.690;6.184;2022-08-27T09:27:37;3.22;;;1.25;;
53052;SDS011;38934;52.690;6.184;2022-08-27T09:30:10;1.88;;;1.30;;
53052;SDS011;38934;52.690;6.184;2022-08-27T09:32:40;5.28;;;1.55;;
53052;SDS011;38934;52.690;6.184;2022-08-27T09:35:07;3.92;;;1.40;;
53052;SDS011;38934;52.690;6.184;2022-08-27T09:37:39;4.22;;;1.38;;
53052;SDS011;38934;52.690;6.184;2022-08-27T09:40:29;4.10;;;1.60;;
53052;SDS011;38934;52.690;6.184;2022-08-27T09:42:56;3.88;;;1.67;;
53052;SDS011;38934;52.690;6.184;2022-08-27T09:45:49;3.95;;;1.50;;
53052;SDS011;38934;52.690;6.184;2022-08-27T09:48:18;4.82;;;1.50;;
53052;SDS011;38934;52.690;6.184;2022-08-27T09:50:53;4.55;;;1.63;;
53052;SDS011;38934;52.690;6.184;2022-08-27T09:56:08;4.07;;;1.48;;
53052;SDS011;38934;52.690;6.184;2022-08-27T09:58:50;3.13;;;1.50;;
53052;SDS011;38934;52.690;6.184;2022-08-27T10:01:23;6.50;;;1.60;;
53052;SDS011;38934;52.690;6.184;2022-08-27T10:06:28;3.85;;;1.50;;
53052;SDS011;38934;52.690;6.184;2022-08-27T10:08:56;3.90;;;1.40;;
53052;SDS011;38934;52.690;6.184;2022-08-27T10:12:04;4.22;;;1.45;;
53052;SDS011;38934;52.690;6.184;2022-08-27T10:14:51;3.83;;;1.40;;
53052;SDS011;38934;52.690;6.184;2022-08-27T10:23:00;4.80;;;1.40;;
53052;SDS011;38934;52.690;6.184;2022-08-27T10:30:58;5.43;;;1.13;;
53052;SDS011;38934;52.690;6.184;2022-08-27T10:36:37;2.10;;;1.33;;
53052;SDS011;38934;52.690;6.184;2022-08-27T10:39:15;3.90;;;1.05;;
53052;SDS011;38934;52.690;6.184;2022-08-27T10:42:09;3.53;;;1.90;;
53052;SDS011;38934;52.690;6.184;2022-08-27T10:50:36;2.95;;;1.10;;
53052;SDS011;38934;52.690;6.184;2022-08-27T10:53:24;3.63;;;1.20;;
53052;SDS011;38934;52.690;6.184;2022-08-27T10:56:00;2.88;;;1.05;;
53052;SDS011;38934;52.690;6.184;2022-08-27T10:58:50;2.00;;;1.05;;
53052;SDS011;38934;52.690;6.184;2022-08-27T11:16:49;2.30;;;0.90;;
53052;SDS011;38934;52.690;6.184;2022-08-27T11:22:50;3.95;;;1.38;;
53052;SDS011;38934;52.690;6.184;2022-08-27T11:27:46;3.63;;;1.60;;
53052;SDS011;38934;52.690;6.184;2022-08-27T11:30:30;3.28;;;1.20;;
53052;SDS011;38934;52.690;6.184;2022-08-27T11:33:05;3.28;;;1.13;;
53052;SDS011;38934;52.690;6.184;2022-08-27T11:44:25;3.75;;;1.38;;
53052;SDS011;38934;52.690;6.184;2022-08-27T11:49:36;5.65;;;1.48;;
53052;SDS011;38934;52.690;6.184;2022-08-27T11:52:05;5.60;;;1.40;;
53052;SDS011;38934;52.690;6.184;2022-08-27T11:55:34;3.58;;;1.15;;
53052;SDS011;38934;52.690;6.184;2022-08-27T11:57:38;4.45;;;1.30;;
53052;SDS011;38934;52.690;6.184;2022-08-27T12:02:58;3.72;;;1.20;;
53052;SDS011;38934;52.690;6.184;2022-08-27T12:05:38;2.90;;;1.20;;
53052;SDS011;38934;52.690;6.184;2022-08-27T12:08:32;4.88;;;1.50;;
53052;SDS011;38934;52.690;6.184;2022-08-27T12:13:48;2.63;;;1.10;;
53052;SDS011;38934;52.690;6.184;2022-08-27T12:16:35;2.78;;;0.90;;
53052;SDS011;38934;52.690;6.184;2022-08-27T12:32:45;2.47;;;0.98;;
53052;SDS011;38934;52.690;6.184;2022-08-27T12:37:47;4.72;;;1.30;;
53052;SDS011;38934;52.690;6.184;2022-08-27T12:42:51;4.15;;;1.20;;
53052;SDS011;38934;52.690;6.184;2022-08-27T12:46:02;3.08;;;1.17;;
53052;SDS011;38934;52.690;6.184;2022-08-27T12:48:40;3.72;;;1.00;;
53052;SDS011;38934;52.690;6.184;2022-08-27T12:51:33;2.03;;;0.82;;
53052;SDS011;38934;52.690;6.184;2022-08-27T12:57:03;5.70;;;1.48;;
53052;SDS011;38934;52.690;6.184;2022-08-27T13:02:56;9.40;;;1.27;;
53052;SDS011;38934;52.690;6.184;2022-08-27T13:05:38;3.30;;;1.10;;
53052;SDS011;38934;52.690;6.184;2022-08-27T13:08:16;3.10;;;1.00;;
53052;SDS011;38934;52.690;6.184;2022-08-27T13:10:52;2.95;;;0.93;;
53052;SDS011;38934;52.690;6.184;2022-08-27T13:13:19;2.72;;;1.00;;
53052;SDS011;38934;52.690;6.184;2022-08-27T13:15:55;4.10;;;1.50;;
53052;SDS011;38934;52.690;6.184;2022-08-27T13:18:25;3.22;;;1.50;;
53052;SDS011;38934;52.690;6.184;2022-08-27T13:20:59;2.92;;;0.80;;
53052;SDS011;38934;52.690;6.184;2022-08-27T13:23:27;3.03;;;1.05;;
53052;SDS011;38934;52.690;6.184;2022-08-27T13:25:56;4.82;;;1.05;;
53052;SDS011;38934;52.690;6.184;2022-08-27T13:28:29;4.78;;;1.67;;
53052;SDS011;38934;52.690;6.184;2022-08-27T13:30:58;3.20;;;0.80;;
53052;SDS011;38934;52.690;6.184;2022-08-27T13:33:26;4.65;;;1.20;;
53052;SDS011;38934;52.690;6.184;2022-08-27T13:35:59;4.03;;;1.00;;
53052;SDS011;38934;52.690;6.184;2022-08-27T13:38:27;3.30;;;0.98;;
53052;SDS011;38934;52.690;6.184;2022-08-27T13:40:59;3.37;;;0.93;;
53052;SDS011;38934;52.690;6.184;2022-08-27T13:43:30;3.92;;;1.00;;
53052;SDS011;38934;52.690;6.184;2022-08-27T13:46:09;3.95;;;1.23;;
53052;SDS011;38934;52.690;6.184;2022-08-27T13:48:41;1.23;;;0.77;;
53052;SDS011;38934;52.690;6.184;2022-08-27T13:51:08;4.47;;;1.10;;
53052;SDS011;38934;52.690;6.184;2022-08-27T13:53:35;2.03;;;0.80;;
53052;SDS011;38934;52.690;6.184;2022-08-27T13:56:28;3.22;;;0.80;;
53052;SDS011;38934;52.690;6.184;2022-08-27T13:59:09;2.53;;;0.90;;
53052;SDS011;38934;52.690;6.184;2022-08-27T14:01:41;2.38;;;0.95;;
53052;SDS011;38934;52.690;6.184;2022-08-27T14:07:13;3.20;;;1.17;;
53052;SDS011;38934;52.690;6.184;2022-08-27T14:09:45;2.08;;;0.82;;
53052;SDS011;38934;52.690;6.184;2022-08-27T14:12:17;4.22;;;0.90;;
53052;SDS011;38934;52.690;6.184;2022-08-27T14:14:53;2.72;;;0.80;;
53052;SDS011;38934;52.690;6.184;2022-08-27T14:17:23;1.35;;;0.70;;
53052;SDS011;38934;52.690;6.184;2022-08-27T14:20:01;3.38;;;1.10;;
53052;SDS011;38934;52.690;6.184;2022-08-27T14:22:29;2.08;;;1.10;;
53052;SDS011;38934;52.690;6.184;2022-08-27T14:24:55;3.28;;;0.80;;
53052;SDS011;38934;52.690;6.184;2022-08-27T14:27:20;3.78;;;1.13;;
53052;SDS011;38934;52.690;6.184;2022-08-27T14:29:46;1.95;;;0.85;;
53052;SDS011;38934;52.690;6.184;2022-08-27T14:32:14;2.75;;;0.75;;
53052;SDS011;38934;52.690;6.184;2022-08-27T14:34:43;4.03;;;1.10;;
53052;SDS011;38934;52.690;6.184;2022-08-27T14:37:08;3.55;;;1.00;;
53052;SDS011;38934;52.690;6.184;2022-08-27T14:39:34;5.25;;;0.90;;
53052;SDS011;38934;52.690;6.184;2022-08-27T14:42:00;3.35;;;1.00;;
53052;SDS011;38934;52.690;6.184;2022-08-27T14:44:26;3.08;;;0.80;;
53052;SDS011;38934;52.690;6.184;2022-08-27T14:46:52;2.35;;;0.98;;
53052;SDS011;38934;52.690;6.184;2022-08-27T14:49:24;2.63;;;0.80;;
53052;SDS011;38934;52.690;6.184;2022-08-27T14:51:55;3.75;;;1.02;;
53052;SDS011;38934;52.690;6.184;2022-08-27T14:54:21;3.10;;;0.90;;
53052;SDS011;38934;52.690;6.184;2022-08-27T14:56:48;2.97;;;0.93;;
53052;SDS011;38934;52.690;6.184;2022-08-27T14:59:14;1.70;;;0.85;;
53052;SDS011;38934;52.690;6.184;2022-08-27T15:01:39;2.53;;;0.80;;
53052;SDS011;38934;52.690;6.184;2022-08-27T15:04:05;2.03;;;0.90;;
53052;SDS011;38934;52.690;6.184;2022-08-27T15:06:32;6.43;;;1.30;;
53052;SDS011;38934;52.690;6.184;2022-08-27T15:08:57;3.53;;;1.25;;
53052;SDS011;38934;52.690;6.184;2022-08-27T15:11:24;2.08;;;0.93;;
53052;SDS011;38934;52.690;6.184;2022-08-27T15:13:53;3.33;;;0.80;;
53052;SDS011;38934;52.690;6.184;2022-08-27T15:16:28;3.13;;;1.00;;
53052;SDS011;38934;52.690;6.184;2022-08-27T15:18:59;2.25;;;0.75;;
53052;SDS011;38934;52.690;6.184;2022-08-27T15:21:27;1.75;;;0.80;;
53052;SDS011;38934;52.690;6.184;2022-08-27T15:23:56;2.60;;;0.88;;
53052;SDS011;38934;52.690;6.184;2022-08-27T15:26:24;4.05;;;1.10;;
53052;SDS011;38934;52.690;6.184;2022-08-27T15:28:50;2.45;;;1.02;;
53052;SDS011;38934;52.690;6.184;2022-08-27T15:31:17;1.63;;;1.02;;
53052;SDS011;38934;52.690;6.184;2022-08-27T15:33:43;4.35;;;1.20;;
53052;SDS011;38934;52.690;6.184;2022-08-27T15:36:10;3.08;;;0.98;;
53052;SDS011;38934;52.690;6.184;2022-08-27T15:38:36;3.08;;;1.10;;
53052;SDS011;38934;52.690;6.184;2022-08-27T15:41:02;3.70;;;1.25;;
53052;SDS011;38934;52.690;6.184;2022-08-27T15:43:28;2.40;;;1.00;;
53052;SDS011;38934;52.690;6.184;2022-08-27T15:45:53;4.13;;;1.20;;
53052;SDS011;38934;52.690;6.184;2022-08-27T15:48:19;2.53;;;1.10;;
53052;SDS011;38934;52.690;6.184;2022-08-27T15:50:46;1.63;;;1.00;;
53052;SDS011;38934;52.690;6.184;2022-08-27T15:53:12;4.85;;;1.30;;
53052;SDS011;38934;52.690;6.184;2022-08-27T15:55:39;3.45;;;1.30;;
53052;SDS011;38934;52.690;6.184;2022-08-27T15:58:06;3.05;;;1.33;;
53052;SDS011;38934;52.690;6.184;2022-08-27T16:00:34;3.80;;;1.50;;
53052;SDS011;38934;52.690;6.184;2022-08-27T16:03:02;5.60;;;1.75;;
53052;SDS011;38934;52.690;6.184;2022-08-27T16:05:31;6.28;;;2.20;;
53052;SDS011;38934;52.690;6.184;2022-08-27T16:08:01;4.03;;;1.60;;
53052;SDS011;38934;52.690;6.184;2022-08-27T16:10:27;2.65;;;1.30;;
53052;SDS011;38934;52.690;6.184;2022-08-27T16:12:53;4.45;;;1.20;;
53052;SDS011;38934;52.690;6.184;2022-08-27T16:15:18;4.13;;;1.90;;
53052;SDS011;38934;52.690;6.184;2022-08-27T16:17:44;1.95;;;1.05;;
53052;SDS011;38934;52.690;6.184;2022-08-27T16:20:11;2.78;;;1.40;;
53052;SDS011;38934;52.690;6.184;2022-08-27T16:22:39;4.63;;;1.60;;
53052;SDS011;38934;52.690;6.184;2022-08-27T16:25:06;3.42;;;1.50;;
53052;SDS011;38934;52.690;6.184;2022-08-27T16:27:33;4.28;;;1.60;;
53052;SDS011;38934;52.690;6.184;2022-08-27T16:29:59;2.75;;;1.40;;
53052;SDS011;38934;52.690;6.184;2022-08-27T16:32:25;4.20;;;1.50;;
53052;SDS011;38934;52.690;6.184;2022-08-27T16:34:55;7.97;;;1.90;;
53052;SDS011;38934;52.690;6.184;2022-08-27T16:37:22;3.33;;;1.52;;
53052;SDS011;38934;52.690;6.184;2022-08-27T16:39:48;4.22;;;1.75;;
53052;SDS011;38934;52.690;6.184;2022-08-27T16:42:14;8.18;;;2.25;;
53052;SDS011;38934;52.690;6.184;2022-08-27T16:44:40;4.28;;;1.60;;
53052;SDS011;38934;52.690;6.184;2022-08-27T16:47:06;5.78;;;1.80;;
53052;SDS011;38934;52.690;6.184;2022-08-27T16:49:32;5.63;;;1.63;;
53052;SDS011;38934;52.690;6.184;2022-08-27T16:52:17;4.85;;;1.70;;
53052;SDS011;38934;52.690;6.184;2022-08-27T16:54:44;3.15;;;1.48;;
53052;SDS011;38934;52.690;6.184;2022-08-27T16:57:10;3.40;;;1.50;;
53052;SDS011;38934;52.690;6.184;2022-08-27T16:59:35;4.60;;;1.80;;
53052;SDS011;38934;52.690;6.184;2022-08-27T17:02:01;4.15;;;1.55;;
53052;SDS011;38934;52.690;6.184;2022-08-27T17:04:28;4.35;;;1.88;;